createdAt,value
2022-10-10T00:08:08.321Z,21.20
2022-10-10T00:18:15.708Z,19.00
2022-10-10T00:28:23.594Z,21.80
2022-10-10T00:38:31.901Z,27.90
2022-10-10T00:48:39.877Z,22.50
2022-10-10T00:58:51.850Z,21.30
2022-10-10T01:08:59.511Z,21.90
2022-10-10T01:19:06.033Z,20.10
2022-10-10T01:29:16.011Z,23.70
2022-10-10T01:39:30.136Z,17.60
2022-10-10T01:49:37.250Z,19.70
2022-10-10T01:59:42.909Z,16.50
2022-10-10T02:09:53.553Z,13.00
2022-10-10T02:20:01.715Z,12.20
2022-10-10T02:30:11.063Z,14.00
2022-10-10T02:40:18.112Z,9.40
2022-10-10T02:50:25.979Z,10.60
2022-10-10T03:00:33.775Z,7.40
2022-10-10T03:10:40.162Z,15.70
2022-10-10T03:20:45.345Z,14.40
2022-10-10T03:30:52.737Z,9.10
2022-10-10T03:40:59.714Z,11.60
2022-10-10T03:51:06.903Z,10.00
2022-10-10T04:01:14.290Z,9.30
2022-10-10T04:11:21.373Z,16.70
2022-10-10T04:21:28.597Z,14.00
2022-10-10T04:31:35.799Z,10.40
2022-10-10T04:41:42.898Z,9.90
2022-10-10T04:51:49.994Z,22.40
2022-10-10T05:02:01.323Z,13.80
2022-10-10T05:12:09.067Z,12.80
2022-10-10T05:22:16.476Z,10.20
2022-10-10T05:32:23.859Z,11.60
2022-10-10T05:42:31.262Z,11.40
2022-10-10T05:52:38.491Z,11.20
2022-10-10T06:02:45.593Z,11.00
2022-10-10T06:12:53.636Z,14.10
2022-10-10T06:23:01.113Z,14.10
2022-10-10T06:33:07.855Z,14.00
2022-10-10T06:43:16.872Z,10.80
2022-10-10T06:53:23.902Z,11.80
2022-10-10T07:03:32.596Z,19.90
2022-10-10T07:13:40.689Z,9.50
2022-10-10T07:23:47.850Z,10.20
2022-10-10T07:33:55.451Z,7.80
2022-10-10T07:44:04.190Z,7.00
2022-10-10T07:54:13.099Z,6.50
2022-10-10T08:04:20.346Z,10.30
2022-10-10T08:14:28.076Z,6.60
2022-10-10T08:24:35.542Z,3.30
2022-10-10T08:34:42.810Z,6.60
2022-10-10T08:44:51.422Z,4.80
2022-10-10T08:54:58.857Z,3.10
2022-10-10T09:05:06.836Z,7.80
2022-10-10T09:15:19.757Z,4.80
2022-10-10T09:25:32.754Z,5.40
2022-10-10T09:35:43.941Z,8.60
2022-10-10T09:45:56.353Z,8.00
2022-10-10T09:56:06.219Z,3.40
2022-10-10T10:16:31.039Z,6.00
2022-10-10T10:26:43.938Z,5.30
2022-10-10T10:37:00.253Z,6.50
2022-10-10T10:47:17.056Z,8.30
2022-10-10T10:57:37.136Z,6.40
2022-10-10T11:07:49.262Z,3.00
2022-10-10T11:17:57.277Z,4.80
2022-10-10T11:28:13.224Z,4.50
2022-10-10T11:38:23.698Z,4.20
2022-10-10T11:48:29.595Z,4.40
2022-10-10T11:58:38.050Z,6.10
2022-10-10T12:08:47.876Z,5.60
2022-10-10T12:18:55.611Z,7.20
2022-10-10T12:29:03.524Z,8.00
2022-10-10T12:39:49.920Z,7.90
2022-10-10T12:49:58.979Z,9.20
2022-10-10T13:00:15.587Z,7.70
2022-10-10T13:10:21.202Z,4.20
2022-10-10T13:20:27.299Z,7.70
2022-10-10T13:30:34.556Z,9.50
2022-10-10T13:40:43.768Z,7.30
2022-10-10T13:50:56.349Z,8.00
2022-10-10T14:01:04.688Z,7.20
2022-10-10T14:11:20.765Z,12.70
2022-10-10T14:21:28.342Z,6.00
2022-10-10T14:31:35.891Z,11.70
2022-10-10T14:41:43.201Z,9.40
2022-10-10T14:51:50.736Z,11.60
2022-10-10T15:01:56.780Z,7.10
2022-10-10T15:12:04.324Z,10.30
2022-10-10T15:22:10.418Z,8.40
2022-10-10T15:32:17.682Z,13.60
2022-10-10T15:42:25.095Z,14.80
2022-10-10T15:52:32.770Z,13.10
2022-10-10T16:02:40.381Z,14.60
2022-10-10T16:12:47.842Z,12.20
2022-10-10T16:22:55.134Z,14.00
2022-10-10T16:33:02.151Z,13.40
2022-10-10T16:43:09.372Z,12.50
2022-10-10T16:53:16.459Z,16.20
2022-10-10T17:03:25.237Z,15.40
2022-10-10T17:13:33.595Z,23.50
2022-10-10T17:23:41.707Z,22.40
2022-10-10T17:33:53.552Z,27.70
2022-10-10T17:44:02.304Z,29.20
2022-10-10T17:54:10.254Z,24.90
2022-10-10T18:04:16.870Z,33.00
2022-10-10T18:14:22.840Z,41.90
2022-10-10T18:24:30.433Z,54.60
2022-10-10T18:34:37.078Z,40.80
2022-10-10T18:44:44.236Z,43.60
2022-10-10T18:54:51.520Z,54.30
2022-10-10T19:04:58.102Z,51.90
2022-10-10T19:15:05.699Z,47.40
2022-10-10T19:25:13.282Z,46.10
2022-10-10T19:35:20.817Z,41.90
2022-10-10T19:45:28.017Z,47.60
2022-10-10T19:55:35.397Z,52.50
2022-10-10T20:05:42.440Z,55.30
2022-10-10T20:15:50.845Z,47.20
2022-10-10T20:25:57.942Z,36.70
2022-10-10T20:36:02.550Z,40.10
2022-10-10T20:46:08.122Z,45.90
2022-10-10T20:56:14.999Z,41.80
2022-10-10T21:06:23.164Z,51.10
2022-10-10T21:16:33.591Z,51.50
2022-10-10T21:26:41.883Z,45.40
2022-10-10T21:36:49.450Z,44.40
2022-10-10T21:46:56.575Z,40.50
2022-10-10T21:57:03.525Z,34.70
2022-10-10T22:07:10.673Z,35.90
2022-10-10T22:17:17.858Z,27.30
2022-10-10T22:27:25.037Z,29.40
2022-10-10T22:37:32.279Z,29.30
2022-10-10T22:47:38.894Z,22.40
2022-10-10T22:57:46.292Z,20.00
2022-10-10T23:07:53.785Z,24.20
2022-10-10T23:18:01.352Z,26.70
2022-10-10T23:28:07.439Z,20.50
2022-10-10T23:38:14.623Z,18.70
2022-10-10T23:48:22.402Z,14.70
2022-10-10T23:58:29.950Z,18.10
